sensor_id;sensor_type;location;lat;lon;timestamp;pressure;altitude;pressure_sealevel;temperature
24201;BMP280;2801;50.972;7.856;2024-02-16T00:02:03;97240.81;;;10.36
24201;BMP280;2801;50.972;7.856;2024-02-16T00:04:30;97236.63;;;10.27
24201;BMP280;2801;50.972;7.856;2024-02-16T00:06:58;97229.06;;;10.29
24201;BMP280;2801;50.972;7.856;2024-02-16T00:09:25;97227.69;;;10.23
24201;BMP280;2801;50.972;7.856;2024-02-16T00:11:52;97220.97;;;10.17
24201;BMP280;2801;50.972;7.856;2024-02-16T00:14:19;97222.25;;;10.11
24201;BMP280;2801;50.972;7.856;2024-02-16T00:16:47;97221.00;;;10.08
24201;BMP280;2801;50.972;7.856;2024-02-16T00:19:15;97223.81;;;10.12
24201;BMP280;2801;50.972;7.856;2024-02-16T00:21:42;97213.44;;;10.10
24201;BMP280;2801;50.972;7.856;2024-02-16T00:24:10;97218.13;;;10.13
24201;BMP280;2801;50.972;7.856;2024-02-16T00:26:37;97206.34;;;10.14
24201;BMP280;2801;50.972;7.856;2024-02-16T00:29:07;97219.25;;;10.12
24201;BMP280;2801;50.972;7.856;2024-02-16T00:31:34;97213.09;;;10.12
24201;BMP280;2801;50.972;7.856;2024-02-16T00:34:01;97212.34;;;10.11
24201;BMP280;2801;50.972;7.856;2024-02-16T00:36:28;97210.38;;;10.20
24201;BMP280;2801;50.972;7.856;2024-02-16T00:38:57;97208.94;;;10.23
24201;BMP280;2801;50.972;7.856;2024-02-16T00:41:25;97205.75;;;10.29
24201;BMP280;2801;50.972;7.856;2024-02-16T00:43:52;97203.66;;;10.35
24201;BMP280;2801;50.972;7.856;2024-02-16T00:46:20;97206.66;;;10.33
24201;BMP280;2801;50.972;7.856;2024-02-16T00:48:51;97205.53;;;10.34
24201;BMP280;2801;50.972;7.856;2024-02-16T00:51:18;97203.78;;;10.38
24201;BMP280;2801;50.972;7.856;2024-02-16T00:53:46;97195.41;;;10.40
24201;BMP280;2801;50.972;7.856;2024-02-16T00:56:13;97201.22;;;10.42
24201;BMP280;2801;50.972;7.856;2024-02-16T00:58:40;97202.47;;;10.44
24201;BMP280;2801;50.972;7.856;2024-02-16T01:01:09;97200.25;;;10.46
24201;BMP280;2801;50.972;7.856;2024-02-16T01:03:39;97204.94;;;10.49
24201;BMP280;2801;50.972;7.856;2024-02-16T01:06:06;97206.84;;;10.49
24201;BMP280;2801;50.972;7.856;2024-02-16T01:08:35;97193.44;;;10.49
24201;BMP280;2801;50.972;7.856;2024-02-16T01:11:03;97198.63;;;10.54
24201;BMP280;2801;50.972;7.856;2024-02-16T01:13:30;97203.19;;;10.53
24201;BMP280;2801;50.972;7.856;2024-02-16T01:15:57;97203.72;;;10.47
24201;BMP280;2801;50.972;7.856;2024-02-16T01:18:25;97195.78;;;10.50
24201;BMP280;2801;50.972;7.856;2024-02-16T01:20:53;97191.22;;;10.51
24201;BMP280;2801;50.972;7.856;2024-02-16T01:23:23;97197.81;;;10.53
24201;BMP280;2801;50.972;7.856;2024-02-16T01:25:50;97192.66;;;10.48
24201;BMP280;2801;50.972;7.856;2024-02-16T01:28:17;97197.44;;;10.43
24201;BMP280;2801;50.972;7.856;2024-02-16T01:30:44;97193.84;;;10.39
24201;BMP280;2801;50.972;7.856;2024-02-16T01:33:11;97198.41;;;10.38
24201;BMP280;2801;50.972;7.856;2024-02-16T01:35:39;97197.19;;;10.36
24201;BMP280;2801;50.972;7.856;2024-02-16T01:38:06;97196.72;;;10.34
24201;BMP280;2801;50.972;7.856;2024-02-16T01:40:33;97192.34;;;10.29
24201;BMP280;2801;50.972;7.856;2024-02-16T01:43:00;97194.56;;;10.27
24201;BMP280;2801;50.972;7.856;2024-02-16T01:45:27;97192.53;;;10.24
24201;BMP280;2801;50.972;7.856;2024-02-16T01:47:54;97197.88;;;10.24
24201;BMP280;2801;50.972;7.856;2024-02-16T01:50:22;97190.97;;;10.23
24201;BMP280;2801;50.972;7.856;2024-02-16T01:52:50;97197.44;;;10.22
24201;BMP280;2801;50.972;7.856;2024-02-16T01:55:18;97195.09;;;10.21
24201;BMP280;2801;50.972;7.856;2024-02-16T01:57:48;97193.38;;;10.16
24201;BMP280;2801;50.972;7.856;2024-02-16T02:00:16;97197.94;;;10.16
24201;BMP280;2801;50.972;7.856;2024-02-16T02:02:46;97199.84;;;10.15
24201;BMP280;2801;50.972;7.856;2024-02-16T02:05:13;97189.91;;;10.16
24201;BMP280;2801;50.972;7.856;2024-02-16T02:07:42;97192.78;;;10.11
24201;BMP280;2801;50.972;7.856;2024-02-16T02:10:11;97188.66;;;10.13
24201;BMP280;2801;50.972;7.856;2024-02-16T02:12:42;97193.38;;;10.16
24201;BMP280;2801;50.972;7.856;2024-02-16T02:15:10;97180.00;;;10.16
24201;BMP280;2801;50.972;7.856;2024-02-16T02:17:37;97181.53;;;10.17
24201;BMP280;2801;50.972;7.856;2024-02-16T02:20:06;97183.91;;;10.19
24201;BMP280;2801;50.972;7.856;2024-02-16T02:22:38;97187.38;;;10.19
24201;BMP280;2801;50.972;7.856;2024-02-16T02:25:05;97177.78;;;10.18
24201;BMP280;2801;50.972;7.856;2024-02-16T02:27:32;97179.34;;;10.19
24201;BMP280;2801;50.972;7.856;2024-02-16T02:30:00;97175.53;;;10.20
24201;BMP280;2801;50.972;7.856;2024-02-16T02:32:27;97177.91;;;10.22
24201;BMP280;2801;50.972;7.856;2024-02-16T02:34:55;97174.09;;;10.23
24201;BMP280;2801;50.972;7.856;2024-02-16T02:37:22;97170.97;;;10.21
24201;BMP280;2801;50.972;7.856;2024-02-16T02:39:49;97170.97;;;10.21
24201;BMP280;2801;50.972;7.856;2024-02-16T02:42:16;97172.53;;;10.22
24201;BMP280;2801;50.972;7.856;2024-02-16T02:44:43;97170.78;;;10.26
24201;BMP280;2801;50.972;7.856;2024-02-16T02:47:16;97173.59;;;10.29
24201;BMP280;2801;50.972;7.856;2024-02-16T02:49:44;97179.53;;;10.35
24201;BMP280;2801;50.972;7.856;2024-02-16T02:52:11;97174.31;;;10.38
24201;BMP280;2801;50.972;7.856;2024-02-16T02:54:38;97173.19;;;10.39
24201;BMP280;2801;50.972;7.856;2024-02-16T02:57:06;97169.84;;;10.42
24201;BMP280;2801;50.972;7.856;2024-02-16T02:59:33;97174.25;;;10.47
24201;BMP280;2801;50.972;7.856;2024-02-16T03:02:00;97172.47;;;10.51
24201;BMP280;2801;50.972;7.856;2024-02-16T03:04:27;97167.69;;;10.56
24201;BMP280;2801;50.972;7.856;2024-02-16T03:06:54;97165.13;;;10.60
24201;BMP280;2801;50.972;7.856;2024-02-16T03:09:22;97159.75;;;10.60
24201;BMP280;2801;50.972;7.856;2024-02-16T03:11:49;97160.22;;;10.62
24201;BMP280;2801;50.972;7.856;2024-02-16T03:14:17;97157.41;;;10.58
24201;BMP280;2801;50.972;7.856;2024-02-16T03:16:44;97148.59;;;10.58
24201;BMP280;2801;50.972;7.856;2024-02-16T03:19:11;97141.31;;;10.58
24201;BMP280;2801;50.972;7.856;2024-02-16T03:21:38;97149.38;;;10.58
24201;BMP280;2801;50.972;7.856;2024-02-16T03:24:06;97151.28;;;10.58
24201;BMP280;2801;50.972;7.856;2024-02-16T03:26:33;97149.38;;;10.58
24201;BMP280;2801;50.972;7.856;2024-02-16T03:29:00;97145.44;;;10.56
24201;BMP280;2801;50.972;7.856;2024-02-16T03:31:27;97140.56;;;10.58
24201;BMP280;2801;50.972;7.856;2024-02-16T03:33:55;97160.00;;;10.67
24201;BMP280;2801;50.972;7.856;2024-02-16T03:36:24;97166.28;;;10.71
24201;BMP280;2801;50.972;7.856;2024-02-16T03:38:51;97164.81;;;10.73
24201;BMP280;2801;50.972;7.856;2024-02-16T03:41:22;97169.59;;;10.68
24201;BMP280;2801;50.972;7.856;2024-02-16T03:43:51;97176.75;;;10.64
24201;BMP280;2801;50.972;7.856;2024-02-16T03:46:18;97178.19;;;10.61
24201;BMP280;2801;50.972;7.856;2024-02-16T03:48:45;97164.47;;;10.63
24201;BMP280;2801;50.972;7.856;2024-02-16T03:51:12;97169.81;;;10.63
24201;BMP280;2801;50.972;7.856;2024-02-16T03:53:40;97162.13;;;10.61
24201;BMP280;2801;50.972;7.856;2024-02-16T03:56:06;97166.03;;;10.64
24201;BMP280;2801;50.972;7.856;2024-02-16T03:58:36;97158.31;;;10.62
24201;BMP280;2801;50.972;7.856;2024-02-16T04:01:04;97151.06;;;10.63
24201;BMP280;2801;50.972;7.856;2024-02-16T04:03:34;97145.13;;;10.57
24201;BMP280;2801;50.972;7.856;2024-02-16T04:06:02;97144.31;;;10.57
24201;BMP280;2801;50.972;7.856;2024-02-16T04:08:31;97152.84;;;10.59
24201;BMP280;2801;50.972;7.856;2024-02-16T04:10:58;97143.47;;;10.65
24201;BMP280;2801;50.972;7.856;2024-02-16T04:13:25;97157.34;;;10.67
24201;BMP280;2801;50.972;7.856;2024-02-16T04:15:53;97163.50;;;10.67
24201;BMP280;2801;50.972;7.856;2024-02-16T04:18:21;97166.16;;;10.67
24201;BMP280;2801;50.972;7.856;2024-02-16T04:20:48;97168.16;;;10.70
24201;BMP280;2801;50.972;7.856;2024-02-16T04:23:15;97163.16;;;10.69
24201;BMP280;2801;50.972;7.856;2024-02-16T04:25:42;97182.25;;;10.67
24201;BMP280;2801;50.972;7.856;2024-02-16T04:28:09;97185.38;;;10.69
24201;BMP280;2801;50.972;7.856;2024-02-16T04:30:36;97190.97;;;10.76
24201;BMP280;2801;50.972;7.856;2024-02-16T04:33:03;97165.63;;;10.74
24201;BMP280;2801;50.972;7.856;2024-02-16T04:35:31;97151.41;;;10.73
24201;BMP280;2801;50.972;7.856;2024-02-16T04:37:58;97153.84;;;10.66
24201;BMP280;2801;50.972;7.856;2024-02-16T04:40:25;97155.88;;;10.69
24201;BMP280;2801;50.972;7.856;2024-02-16T04:42:53;97152.66;;;10.76
24201;BMP280;2801;50.972;7.856;2024-02-16T04:45:20;97150.66;;;10.73
24201;BMP280;2801;50.972;7.856;2024-02-16T04:47:47;97144.50;;;10.72
24201;BMP280;2801;50.972;7.856;2024-02-16T04:50:15;97141.94;;;10.76
24201;BMP280;2801;50.972;7.856;2024-02-16T04:52:42;97142.72;;;10.76
24201;BMP280;2801;50.972;7.856;2024-02-16T04:55:10;97142.41;;;10.78
24201;BMP280;2801;50.972;7.856;2024-02-16T04:57:37;97134.91;;;10.83
24201;BMP280;2801;50.972;7.856;2024-02-16T05:00:05;97144.53;;;10.84
24201;BMP280;2801;50.972;7.856;2024-02-16T05:02:32;97142.50;;;10.81
24201;BMP280;2801;50.972;7.856;2024-02-16T05:04:59;97143.63;;;10.80
24201;BMP280;2801;50.972;7.856;2024-02-16T05:07:30;97146.53;;;10.75
24201;BMP280;2801;50.972;7.856;2024-02-16T05:09:58;97156.34;;;10.71
24201;BMP280;2801;50.972;7.856;2024-02-16T05:12:25;97158.44;;;10.66
24201;BMP280;2801;50.972;7.856;2024-02-16T05:14:53;97177.97;;;10.66
24201;BMP280;2801;50.972;7.856;2024-02-16T05:17:21;97175.63;;;10.65
24201;BMP280;2801;50.972;7.856;2024-02-16T05:19:49;97171.06;;;10.65
24201;BMP280;2801;50.972;7.856;2024-02-16T05:22:17;97179.09;;;10.65
24201;BMP280;2801;50.972;7.856;2024-02-16T05:24:48;97169.28;;;10.69
24201;BMP280;2801;50.972;7.856;2024-02-16T05:27:15;97168.16;;;10.70
24201;BMP280;2801;50.972;7.856;2024-02-16T05:29:43;97163.50;;;10.67
24201;BMP280;2801;50.972;7.856;2024-02-16T05:32:11;97176.09;;;10.67
24201;BMP280;2801;50.972;7.856;2024-02-16T05:34:39;97178.44;;;10.68
24201;BMP280;2801;50.972;7.856;2024-02-16T05:37:06;97177.00;;;10.71
24201;BMP280;2801;50.972;7.856;2024-02-16T05:39:36;97168.97;;;10.71
24201;BMP280;2801;50.972;7.856;2024-02-16T05:42:10;97162.69;;;10.67
24201;BMP280;2801;50.972;7.856;2024-02-16T05:44:37;97165.91;;;10.60
24201;BMP280;2801;50.972;7.856;2024-02-16T05:47:04;97159.66;;;10.56
24201;BMP280;2801;50.972;7.856;2024-02-16T05:49:31;97160.94;;;10.50
24201;BMP280;2801;50.972;7.856;2024-02-16T05:51:59;97158.81;;;10.44
24201;BMP280;2801;50.972;7.856;2024-02-16T05:54:47;97153.84;;;10.34
24201;BMP280;2801;50.972;7.856;2024-02-16T05:57:15;97155.03;;;10.24
24201;BMP280;2801;50.972;7.856;2024-02-16T05:59:43;97163.72;;;10.21
24201;BMP280;2801;50.972;7.856;2024-02-16T06:02:10;97159.03;;;10.18
24201;BMP280;2801;50.972;7.856;2024-02-16T06:04:39;97155.28;;;10.11
24201;BMP280;2801;50.972;7.856;2024-02-16T06:07:06;97150.91;;;10.06
24201;BMP280;2801;50.972;7.856;2024-02-16T06:09:34;97146.34;;;10.07
24201;BMP280;2801;50.972;7.856;2024-02-16T06:12:04;97143.38;;;10.00
24201;BMP280;2801;50.972;7.856;2024-02-16T06:14:32;97150.16;;;9.97
24201;BMP280;2801;50.972;7.856;2024-02-16T06:16:59;97142.00;;;9.94
24201;BMP280;2801;50.972;7.856;2024-02-16T06:19:26;97149.13;;;9.90
24201;BMP280;2801;50.972;7.856;2024-02-16T06:21:55;97155.47;;;9.85
24201;BMP280;2801;50.972;7.856;2024-02-16T06:24:23;97164.59;;;9.84
24201;BMP280;2801;50.972;7.856;2024-02-16T06:26:50;97178.44;;;9.86
24201;BMP280;2801;50.972;7.856;2024-02-16T06:29:23;97183.78;;;9.86
24201;BMP280;2801;50.972;7.856;2024-02-16T06:31:51;97188.69;;;9.84
24201;BMP280;2801;50.972;7.856;2024-02-16T06:34:19;97191.38;;;9.84
24201;BMP280;2801;50.972;7.856;2024-02-16T06:36:46;97184.44;;;9.83
24201;BMP280;2801;50.972;7.856;2024-02-16T06:39:15;97187.59;;;9.85
24201;BMP280;2801;50.972;7.856;2024-02-16T06:41:47;97185.34;;;9.87
24201;BMP280;2801;50.972;7.856;2024-02-16T06:44:15;97193.84;;;9.89
24201;BMP280;2801;50.972;7.856;2024-02-16T06:46:45;97204.75;;;9.84
24201;BMP280;2801;50.972;7.856;2024-02-16T06:49:12;97200.16;;;9.85
24201;BMP280;2801;50.972;7.856;2024-02-16T06:51:39;97208.81;;;9.90
24201;BMP280;2801;50.972;7.856;2024-02-16T06:54:06;97215.28;;;9.89
24201;BMP280;2801;50.972;7.856;2024-02-16T06:56:34;97223.19;;;9.86
24201;BMP280;2801;50.972;7.856;2024-02-16T06:59:02;97212.63;;;9.81
24201;BMP280;2801;50.972;7.856;2024-02-16T07:01:29;97221.63;;;9.76
24201;BMP280;2801;50.972;7.856;2024-02-16T07:03:56;97210.50;;;9.66
24201;BMP280;2801;50.972;7.856;2024-02-16T07:06:23;97215.09;;;9.65
24201;BMP280;2801;50.972;7.856;2024-02-16T07:08:51;97213.06;;;9.62
24201;BMP280;2801;50.972;7.856;2024-02-16T07:11:18;97213.06;;;9.62
24201;BMP280;2801;50.972;7.856;2024-02-16T07:13:47;97211.03;;;9.59
24201;BMP280;2801;50.972;7.856;2024-02-16T07:16:14;97224.09;;;9.61
24201;BMP280;2801;50.972;7.856;2024-02-16T07:18:41;97232.75;;;9.58
24201;BMP280;2801;50.972;7.856;2024-02-16T07:21:09;97234.31;;;9.59
24201;BMP280;2801;50.972;7.856;2024-02-16T07:23:36;97241.91;;;9.57
24201;BMP280;2801;50.972;7.856;2024-02-16T07:26:04;97246.63;;;9.60
24201;BMP280;2801;50.972;7.856;2024-02-16T07:28:33;97243.94;;;9.60
24201;BMP280;2801;50.972;7.856;2024-02-16T07:31:01;97242.34;;;9.59
24201;BMP280;2801;50.972;7.856;2024-02-16T07:33:28;97241.72;;;9.62
24201;BMP280;2801;50.972;7.856;2024-02-16T07:35:56;97250.03;;;9.69
24201;BMP280;2801;50.972;7.856;2024-02-16T07:38:23;97256.44;;;9.76
24201;BMP280;2801;50.972;7.856;2024-02-16T07:40:50;97255.13;;;9.91
24201;BMP280;2801;50.972;7.856;2024-02-16T07:43:17;97252.03;;;10.01
24201;BMP280;2801;50.972;7.856;2024-02-16T07:45:46;97256.63;;;10.09
24201;BMP280;2801;50.972;7.856;2024-02-16T07:48:13;97248.66;;;10.21
24201;BMP280;2801;50.972;7.856;2024-02-16T07:50:41;97240.06;;;10.36
24201;BMP280;2801;50.972;7.856;2024-02-16T07:53:08;97235.22;;;10.50
24201;BMP280;2801;50.972;7.856;2024-02-16T07:55:37;97224.56;;;10.62
24201;BMP280;2801;50.972;7.856;2024-02-16T07:58:05;97228.09;;;10.74
24201;BMP280;2801;50.972;7.856;2024-02-16T08:00:32;97244.88;;;10.83
24201;BMP280;2801;50.972;7.856;2024-02-16T08:02:59;97238.41;;;10.96
24201;BMP280;2801;50.972;7.856;2024-02-16T08:05:26;97229.63;;;11.08
24201;BMP280;2801;50.972;7.856;2024-02-16T08:07:54;97233.00;;;11.17
24201;BMP280;2801;50.972;7.856;2024-02-16T08:10:22;97232.25;;;11.28
24201;BMP280;2801;50.972;7.856;2024-02-16T08:12:49;97226.47;;;11.39
24201;BMP280;2801;50.972;7.856;2024-02-16T08:15:18;97223.25;;;11.45
24201;BMP280;2801;50.972;7.856;2024-02-16T08:17:51;97217.34;;;11.64
24201;BMP280;2801;50.972;7.856;2024-02-16T08:20:19;97225.72;;;11.74
24201;BMP280;2801;50.972;7.856;2024-02-16T08:22:47;97224.63;;;11.87
24201;BMP280;2801;50.972;7.856;2024-02-16T08:25:14;97232.56;;;11.96
24201;BMP280;2801;50.972;7.856;2024-02-16T08:27:41;97233.31;;;12.08
24201;BMP280;2801;50.972;7.856;2024-02-16T08:30:09;97228.28;;;12.19
24201;BMP280;2801;50.972;7.856;2024-02-16T08:32:37;97228.94;;;12.28
24201;BMP280;2801;50.972;7.856;2024-02-16T08:35:04;97233.41;;;12.36
24201;BMP280;2801;50.972;7.856;2024-02-16T08:37:32;97266.00;;;12.46
24201;BMP280;2801;50.972;7.856;2024-02-16T08:40:00;97296.63;;;12.57
24201;BMP280;2801;50.972;7.856;2024-02-16T08:42:28;97296.09;;;12.64
24201;BMP280;2801;50.972;7.856;2024-02-16T08:44:55;97289.78;;;12.72
24201;BMP280;2801;50.972;7.856;2024-02-16T08:47:22;97293.22;;;12.84
24201;BMP280;2801;50.972;7.856;2024-02-16T08:49:49;97302.72;;;12.94
24201;BMP280;2801;50.972;7.856;2024-02-16T08:52:16;97283.06;;;13.05
24201;BMP280;2801;50.972;7.856;2024-02-16T08:54:43;97285.38;;;13.19
24201;BMP280;2801;50.972;7.856;2024-02-16T08:57:11;97287.56;;;13.29
24201;BMP280;2801;50.972;7.856;2024-02-16T08:59:38;97277.09;;;13.39
24201;BMP280;2801;50.972;7.856;2024-02-16T09:02:06;97279.81;;;13.55
24201;BMP280;2801;50.972;7.856;2024-02-16T09:04:33;97288.34;;;13.72
24201;BMP280;2801;50.972;7.856;2024-02-16T09:07:00;97273.47;;;13.94
24201;BMP280;2801;50.972;7.856;2024-02-16T09:09:28;97287.63;;;14.06
24201;BMP280;2801;50.972;7.856;2024-02-16T09:11:55;97280.41;;;14.10
24201;BMP280;2801;50.972;7.856;2024-02-16T09:14:22;97290.59;;;14.32
24201;BMP280;2801;50.972;7.856;2024-02-16T09:16:50;97281.94;;;14.77
24201;BMP280;2801;50.972;7.856;2024-02-16T09:19:20;97287.78;;;15.36
24201;BMP280;2801;50.972;7.856;2024-02-16T09:21:49;97290.00;;;15.72
24201;BMP280;2801;50.972;7.856;2024-02-16T09:24:24;97284.28;;;15.77
24201;BMP280;2801;50.972;7.856;2024-02-16T09:26:57;97282.31;;;15.74
24201;BMP280;2801;50.972;7.856;2024-02-16T09:29:24;97301.31;;;15.59
24201;BMP280;2801;50.972;7.856;2024-02-16T09:31:52;97304.75;;;15.56
24201;BMP280;2801;50.972;7.856;2024-02-16T09:34:19;97300.16;;;15.37
24201;BMP280;2801;50.972;7.856;2024-02-16T09:36:46;97305.81;;;15.32
24201;BMP280;2801;50.972;7.856;2024-02-16T09:39:13;97304.03;;;15.21
24201;BMP280;2801;50.972;7.856;2024-02-16T09:41:51;97301.00;;;15.03
24201;BMP280;2801;50.972;7.856;2024-02-16T09:44:22;97309.22;;;14.91
24201;BMP280;2801;50.972;7.856;2024-02-16T09:46:51;97302.28;;;14.90
24201;BMP280;2801;50.972;7.856;2024-02-16T09:49:20;97315.31;;;14.88
24201;BMP280;2801;50.972;7.856;2024-02-16T09:52:02;97307.81;;;14.78
24201;BMP280;2801;50.972;7.856;2024-02-16T09:54:32;97309.28;;;14.75
24201;BMP280;2801;50.972;7.856;2024-02-16T09:57:02;97314.88;;;14.67
24201;BMP280;2801;50.972;7.856;2024-02-16T09:59:31;97317.25;;;14.53
24201;BMP280;2801;50.972;7.856;2024-02-16T10:02:03;97320.25;;;14.48
24201;BMP280;2801;50.972;7.856;2024-02-16T10:04:31;97312.34;;;14.39
24201;BMP280;2801;50.972;7.856;2024-02-16T10:07:03;97313.47;;;14.38
24201;BMP280;2801;50.972;7.856;2024-02-16T10:09:39;97327.03;;;14.42
24201;BMP280;2801;50.972;7.856;2024-02-16T10:12:08;97322.50;;;14.46
24201;BMP280;2801;50.972;7.856;2024-02-16T10:14:36;97326.41;;;14.48
24201;BMP280;2801;50.972;7.856;2024-02-16T10:17:06;97324.16;;;14.50
24201;BMP280;2801;50.972;7.856;2024-02-16T10:19:34;97327.78;;;14.58
24201;BMP280;2801;50.972;7.856;2024-02-16T10:22:12;97331.84;;;14.67
24201;BMP280;2801;50.972;7.856;2024-02-16T10:24:41;97335.84;;;14.73
24201;BMP280;2801;50.972;7.856;2024-02-16T10:27:17;97337.56;;;14.82
24201;BMP280;2801;50.972;7.856;2024-02-16T10:29:47;97342.06;;;14.93
24201;BMP280;2801;50.972;7.856;2024-02-16T10:32:18;97352.56;;;14.98
24201;BMP280;2801;50.972;7.856;2024-02-16T10:34:48;97360.38;;;15.03
24201;BMP280;2801;50.972;7.856;2024-02-16T10:37:16;97360.03;;;15.05
24201;BMP280;2801;50.972;7.856;2024-02-16T10:39:45;97367.13;;;14.94
24201;BMP280;2801;50.972;7.856;2024-02-16T10:42:14;97360.50;;;14.91
24201;BMP280;2801;50.972;7.856;2024-02-16T10:44:43;97368.81;;;14.82
24201;BMP280;2801;50.972;7.856;2024-02-16T10:47:11;97371.84;;;14.81
24201;BMP280;2801;50.972;7.856;2024-02-16T10:49:38;97381.25;;;14.87
24201;BMP280;2801;50.972;7.856;2024-02-16T10:52:06;97373.72;;;14.96
24201;BMP280;2801;50.972;7.856;2024-02-16T10:54:35;97371.13;;;15.00
24201;BMP280;2801;50.972;7.856;2024-02-16T10:57:11;97370.81;;;15.05
24201;BMP280;2801;50.972;7.856;2024-02-16T10:59:42;97363.59;;;15.09
24201;BMP280;2801;50.972;7.856;2024-02-16T11:02:10;97360.69;;;15.17
24201;BMP280;2801;50.972;7.856;2024-02-16T11:04:39;97366.03;;;15.33
24201;BMP280;2801;50.972;7.856;2024-02-16T11:07:18;97369.97;;;15.35
24201;BMP280;2801;50.972;7.856;2024-02-16T11:09:46;97359.81;;;15.48
24201;BMP280;2801;50.972;7.856;2024-02-16T11:12:15;97368.88;;;15.59
24201;BMP280;2801;50.972;7.856;2024-02-16T11:14:46;97363.59;;;15.66
24201;BMP280;2801;50.972;7.856;2024-02-16T11:17:16;97369.09;;;15.69
24201;BMP280;2801;50.972;7.856;2024-02-16T11:19:47;97367.44;;;15.65
24201;BMP280;2801;50.972;7.856;2024-02-16T11:22:19;97372.56;;;15.70
24201;BMP280;2801;50.972;7.856;2024-02-16T11:24:50;97378.63;;;15.63
24201;BMP280;2801;50.972;7.856;2024-02-16T11:27:21;97376.63;;;15.60
24201;BMP280;2801;50.972;7.856;2024-02-16T11:29:50;97367.66;;;15.56
24201;BMP280;2801;50.972;7.856;2024-02-16T11:32:19;97370.44;;;15.60
24201;BMP280;2801;50.972;7.856;2024-02-16T11:34:47;97361.16;;;15.57
24201;BMP280;2801;50.972;7.856;2024-02-16T11:37:16;97364.63;;;15.58
24201;BMP280;2801;50.972;7.856;2024-02-16T11:39:43;97361.19;;;15.61
24201;BMP280;2801;50.972;7.856;2024-02-16T11:42:18;97379.31;;;15.60
24201;BMP280;2801;50.972;7.856;2024-02-16T11:44:54;97377.19;;;15.69
24201;BMP280;2801;50.972;7.856;2024-02-16T11:47:25;97375.75;;;15.75
24201;BMP280;2801;50.972;7.856;2024-02-16T11:50:09;97382.50;;;15.85
24201;BMP280;2801;50.972;7.856;2024-02-16T11:52:40;97383.81;;;15.94
24201;BMP280;2801;50.972;7.856;2024-02-16T11:55:09;97371.63;;;16.04
24201;BMP280;2801;50.972;7.856;2024-02-16T11:57:37;97380.13;;;16.02
24201;BMP280;2801;50.972;7.856;2024-02-16T12:00:05;97383.97;;;16.01
24201;BMP280;2801;50.972;7.856;2024-02-16T12:02:38;97378.72;;;15.89
24201;BMP280;2801;50.972;7.856;2024-02-16T12:05:05;97369.22;;;15.76
24201;BMP280;2801;50.972;7.856;2024-02-16T12:07:37;97374.28;;;15.59
24201;BMP280;2801;50.972;7.856;2024-02-16T12:10:06;97370.47;;;15.41
24201;BMP280;2801;50.972;7.856;2024-02-16T12:12:34;97376.25;;;15.24
24201;BMP280;2801;50.972;7.856;2024-02-16T12:15:02;97375.09;;;15.06
24201;BMP280;2801;50.972;7.856;2024-02-16T12:17:31;97369.47;;;14.95
24201;BMP280;2801;50.972;7.856;2024-02-16T12:19:58;97369.59;;;14.83
24201;BMP280;2801;50.972;7.856;2024-02-16T12:22:26;97379.94;;;14.81
24201;BMP280;2801;50.972;7.856;2024-02-16T12:24:52;97371.34;;;14.75
24201;BMP280;2801;50.972;7.856;2024-02-16T12:27:19;97382.91;;;14.76
24201;BMP280;2801;50.972;7.856;2024-02-16T12:29:46;97373.00;;;14.80
24201;BMP280;2801;50.972;7.856;2024-02-16T12:32:14;97369.94;;;14.82
24201;BMP280;2801;50.972;7.856;2024-02-16T12:34:46;97380.09;;;14.88
24201;BMP280;2801;50.972;7.856;2024-02-16T12:37:14;97376.25;;;14.89
24201;BMP280;2801;50.972;7.856;2024-02-16T12:39:41;97378.25;;;14.92
24201;BMP280;2801;50.972;7.856;2024-02-16T12:42:08;97379.34;;;14.88
24201;BMP280;2801;50.972;7.856;2024-02-16T12:44:36;97382.09;;;14.91
24201;BMP280;2801;50.972;7.856;2024-02-16T12:47:03;97381.91;;;15.00
24201;BMP280;2801;50.972;7.856;2024-02-16T12:49:30;97375.03;;;15.02
24201;BMP280;2801;50.972;7.856;2024-02-16T12:51:57;97383.97;;;15.06
24201;BMP280;2801;50.972;7.856;2024-02-16T12:54:24;97374.47;;;15.12
24201;BMP280;2801;50.972;7.856;2024-02-16T12:56:52;97381.50;;;15.17
24201;BMP280;2801;50.972;7.856;2024-02-16T12:59:20;97393.94;;;15.21
24201;BMP280;2801;50.972;7.856;2024-02-16T13:01:47;97393.09;;;15.17
24201;BMP280;2801;50.972;7.856;2024-02-16T13:04:14;97400.91;;;15.22
24201;BMP280;2801;50.972;7.856;2024-02-16T13:06:49;97401.06;;;15.29
24201;BMP280;2801;50.972;7.856;2024-02-16T13:09:17;97403.41;;;15.31
24201;BMP280;2801;50.972;7.856;2024-02-16T13:11:45;97401.06;;;15.29
24201;BMP280;2801;50.972;7.856;2024-02-16T13:14:12;97409.09;;;15.26
24201;BMP280;2801;50.972;7.856;2024-02-16T13:16:39;97418.31;;;15.25
24201;BMP280;2801;50.972;7.856;2024-02-16T13:19:06;97413.66;;;15.22
24201;BMP280;2801;50.972;7.856;2024-02-16T13:21:33;97422.09;;;15.20
24201;BMP280;2801;50.972;7.856;2024-02-16T13:24:00;97417.75;;;15.16
24201;BMP280;2801;50.972;7.856;2024-02-16T13:26:27;97423.44;;;15.11
24201;BMP280;2801;50.972;7.856;2024-02-16T13:28:56;97429.00;;;15.02
24201;BMP280;2801;50.972;7.856;2024-02-16T13:31:24;97424.66;;;14.98
24201;BMP280;2801;50.972;7.856;2024-02-16T13:33:54;97428.63;;;14.85
24201;BMP280;2801;50.972;7.856;2024-02-16T13:36:21;97434.66;;;14.78
24201;BMP280;2801;50.972;7.856;2024-02-16T13:38:48;97438.28;;;14.70
24201;BMP280;2801;50.972;7.856;2024-02-16T13:41:16;97443.94;;;14.65
24201;BMP280;2801;50.972;7.856;2024-02-16T13:43:46;97458.75;;;14.55
24201;BMP280;2801;50.972;7.856;2024-02-16T13:46:14;97454.31;;;14.47
24201;BMP280;2801;50.972;7.856;2024-02-16T13:48:41;97454.25;;;14.44
24201;BMP280;2801;50.972;7.856;2024-02-16T13:51:09;97457.19;;;14.39
24201;BMP280;2801;50.972;7.856;2024-02-16T13:53:36;97455.53;;;14.34
24201;BMP280;2801;50.972;7.856;2024-02-16T13:56:04;97458.47;;;14.29
24201;BMP280;2801;50.972;7.856;2024-02-16T13:58:32;97464.81;;;14.21
24201;BMP280;2801;50.972;7.856;2024-02-16T14:01:02;97471.19;;;14.17
24201;BMP280;2801;50.972;7.856;2024-02-16T14:03:33;97469.91;;;14.11
24201;BMP280;2801;50.972;7.856;2024-02-16T14:06:01;97472.50;;;14.07
24201;BMP280;2801;50.972;7.856;2024-02-16T14:08:28;97480.50;;;14.04
24201;BMP280;2801;50.972;7.856;2024-02-16T14:10:55;97475.78;;;14.01
24201;BMP280;2801;50.972;7.856;2024-02-16T14:13:22;97481.09;;;13.97
24201;BMP280;2801;50.972;7.856;2024-02-16T14:15:52;97479.34;;;13.89
24201;BMP280;2801;50.972;7.856;2024-02-16T14:18:19;97483.38;;;13.83
24201;BMP280;2801;50.972;7.856;2024-02-16T14:21:01;97491.94;;;13.73
24201;BMP280;2801;50.972;7.856;2024-02-16T14:23:32;97491.41;;;13.68
24201;BMP280;2801;50.972;7.856;2024-02-16T14:25:59;97489.97;;;13.58
24201;BMP280;2801;50.972;7.856;2024-02-16T14:28:26;97492.47;;;13.51
24201;BMP280;2801;50.972;7.856;2024-02-16T14:30:53;97500.34;;;13.44